TRA5793 EHAM-LGPZ
Flight info
| Callsign | TRA5793 |
|---|---|
| Flight time | N/A |
| Altitude | 37000 |
| Route | EDUPO Z739 MISGO DCT DOJOH DCT DODEN DCT NEGIX DCT DINKU M867 XERUM DCT BAVAX DCT RADIZ DCT VILAK DCT DOL DCT NIVES DCT NAVSU DCT TAZ DCT RODON DCT LIMJA DCT PITAS N732 KRK M127 MALED |
| Aircraft | A21N/M-SBDE2E3FGHIJ1J5M1P2RWXYZ/LB1D1G1 |
Departure
| Time | N/A |
|---|---|
| Airport | Amsterdam Airport Schiphol (EHAM) |
Arrival
| Time | 2026-05-07 17:28 |
|---|---|
| Airport | Aktion National Airport (LGPZ) |
| Time | Latitude | Longitude | Altitude | Speed | Heading |
|---|---|---|---|---|---|
| 2026-05-07 17:10 | 39.40650 | 20.10980 | 14003 ft | 322 kts | 141° |
| 2026-05-07 17:10 | 39.38908 | 20.12809 | 14002 ft | 322 kts | 141° |
| 2026-05-07 17:11 | 39.37167 | 20.14633 | 13991 ft | 323 kts | 141° |
| 2026-05-07 17:11 | 39.35422 | 20.16455 | 13832 ft | 322 kts | 141° |
| 2026-05-07 17:11 | 39.33684 | 20.18267 | 13611 ft | 320 kts | 141° |
| 2026-05-07 17:11 | 39.31955 | 20.20070 | 13369 ft | 319 kts | 141° |
| 2026-05-07 17:12 | 39.30228 | 20.21867 | 13123 ft | 318 kts | 141° |
| 2026-05-07 17:12 | 39.28508 | 20.23656 | 12880 ft | 316 kts | 142° |
| 2026-05-07 17:12 | 39.26793 | 20.25430 | 12641 ft | 315 kts | 142° |
| 2026-05-07 17:12 | 39.25090 | 20.27192 | 12407 ft | 314 kts | 142° |
| 2026-05-07 17:13 | 39.23390 | 20.28954 | 12175 ft | 313 kts | 142° |
| 2026-05-07 17:13 | 39.21766 | 20.30804 | 11933 ft | 312 kts | 133° |
| 2026-05-07 17:13 | 39.20365 | 20.32925 | 11692 ft | 310 kts | 129° |
| 2026-05-07 17:13 | 39.19006 | 20.35083 | 11452 ft | 309 kts | 129° |
| 2026-05-07 17:14 | 39.17669 | 20.37199 | 11209 ft | 308 kts | 130° |
| 2026-05-07 17:14 | 39.16316 | 20.39328 | 10963 ft | 307 kts | 130° |
| 2026-05-07 17:14 | 39.14961 | 20.41448 | 10718 ft | 305 kts | 130° |
| 2026-05-07 17:14 | 39.13611 | 20.43555 | 10471 ft | 304 kts | 130° |
| 2026-05-07 17:15 | 39.12269 | 20.45655 | 10279 ft | 303 kts | 130° |
| 2026-05-07 17:15 | 39.10930 | 20.47745 | 10133 ft | 300 kts | 130° |
| 2026-05-07 17:15 | 39.09603 | 20.49817 | 10000 ft | 299 kts | 130° |
| 2026-05-07 17:15 | 39.08282 | 20.51875 | 9870 ft | 298 kts | 130° |
| 2026-05-07 17:16 | 39.06968 | 20.53920 | 9651 ft | 296 kts | 130° |
| 2026-05-07 17:16 | 39.05663 | 20.55951 | 9349 ft | 294 kts | 130° |
| 2026-05-07 17:16 | 39.04358 | 20.57979 | 9018 ft | 293 kts | 130° |
| 2026-05-07 17:16 | 39.03053 | 20.60003 | 8678 ft | 294 kts | 130° |
| 2026-05-07 17:17 | 39.01747 | 20.62023 | 8336 ft | 293 kts | 130° |
| 2026-05-07 17:17 | 39.00447 | 20.64041 | 7995 ft | 292 kts | 130° |
| 2026-05-07 17:17 | 38.99160 | 20.66040 | 7670 ft | 287 kts | 130° |
| 2026-05-07 17:17 | 38.97890 | 20.68008 | 7352 ft | 286 kts | 130° |
| 2026-05-07 17:18 | 38.96637 | 20.69949 | 7019 ft | 286 kts | 130° |
| 2026-05-07 17:18 | 38.95364 | 20.71922 | 6676 ft | 286 kts | 129° |
| 2026-05-07 17:18 | 38.94366 | 20.74101 | 6330 ft | 282 kts | 108° |
| 2026-05-07 17:18 | 38.94237 | 20.76578 | 6009 ft | 280 kts | 79° |
| 2026-05-07 17:19 | 38.95028 | 20.78823 | 5703 ft | 278 kts | 51° |
| 2026-05-07 17:19 | 38.96448 | 20.80496 | 5416 ft | 276 kts | 38° |
| 2026-05-07 17:19 | 38.97970 | 20.81991 | 5135 ft | 274 kts | 37° |
| 2026-05-07 17:19 | 38.99472 | 20.83482 | 4824 ft | 270 kts | 38° |
| 2026-05-07 17:20 | 39.00927 | 20.84955 | 4647 ft | 261 kts | 38° |
| 2026-05-07 17:20 | 39.02317 | 20.86377 | 4516 ft | 250 kts | 38° |
| 2026-05-07 17:20 | 39.03652 | 20.87750 | 4333 ft | 242 kts | 38° |
| 2026-05-07 17:20 | 39.04955 | 20.89098 | 4042 ft | 240 kts | 39° |
| 2026-05-07 17:21 | 39.06196 | 20.90526 | 3718 ft | 238 kts | 51° |
| 2026-05-07 17:21 | 39.06851 | 20.92444 | 3360 ft | 236 kts | 85° |
| 2026-05-07 17:21 | 39.06575 | 20.94489 | 3020 ft | 234 kts | 118° |
| 2026-05-07 17:21 | 39.05540 | 20.96062 | 2900 ft | 232 kts | 141° |
| 2026-05-07 17:22 | 39.04693 | 20.96897 | 2888 ft | 226 kts | 145° |
| 2026-05-07 17:22 | 39.03426 | 20.97971 | 2844 ft | 212 kts | 149° |
| 2026-05-07 17:22 | 39.02146 | 20.98894 | 2717 ft | 210 kts | 155° |
| 2026-05-07 17:22 | 39.00757 | 20.99401 | 2630 ft | 208 kts | 181° |
| 2026-05-07 17:23 | 38.99390 | 20.98932 | 2555 ft | 199 kts | 212° |
| 2026-05-07 17:23 | 38.98473 | 20.97729 | 2514 ft | 188 kts | 239° |
| 2026-05-07 17:23 | 38.98088 | 20.96134 | 2421 ft | 187 kts | 265° |
| 2026-05-07 17:23 | 38.98119 | 20.94470 | 2282 ft | 183 kts | 266° |
| 2026-05-07 17:24 | 38.97775 | 20.92945 | 2065 ft | 175 kts | 247° |
| 2026-05-07 17:24 | 38.97315 | 20.91502 | 1984 ft | 175 kts | 248° |
| 2026-05-07 17:24 | 38.96873 | 20.90080 | 1956 ft | 165 kts | 248° |
| 2026-05-07 17:24 | 38.96444 | 20.88717 | 1824 ft | 164 kts | 247° |
| 2026-05-07 17:25 | 38.96018 | 20.87384 | 1601 ft | 154 kts | 248° |
| 2026-05-07 17:25 | 38.95631 | 20.86255 | 1438 ft | 134 kts | 243° |
| 2026-05-07 17:25 | 38.95277 | 20.85167 | 1235 ft | 128 kts | 248° |
| 2026-05-07 17:25 | 38.94939 | 20.84125 | 997 ft | 126 kts | 249° |
| 2026-05-07 17:26 | 38.94628 | 20.83070 | 842 ft | 126 kts | 248° |
| 2026-05-07 17:26 | 38.94301 | 20.82029 | 690 ft | 126 kts | 246° |
| 2026-05-07 17:26 | 38.93968 | 20.80993 | 512 ft | 125 kts | 247° |
| 2026-05-07 17:26 | 38.93643 | 20.79954 | 344 ft | 125 kts | 247° |
| 2026-05-07 17:27 | 38.93319 | 20.78934 | 199 ft | 125 kts | 248° |
| 2026-05-07 17:27 | 38.92999 | 20.77901 | 49 ft | 124 kts | 248° |
| 2026-05-07 17:27 | 38.92702 | 20.76954 | 24 ft | 89 kts | 248° |
| 2026-05-07 17:27 | 38.92507 | 20.76339 | 26 ft | 67 kts | 249° |
| 2026-05-07 17:28 | 38.92358 | 20.75861 | 25 ft | 39 kts | 249° |
| 2026-05-07 17:28 | 38.92265 | 20.75567 | 27 ft | 24 kts | 255° |
| 2026-05-07 17:28 | 38.92225 | 20.75426 | 26 ft | 8 kts | 245° |
| 2026-05-07 17:28 | 38.92175 | 20.75388 | 26 ft | 11 kts | 174° |
| 2026-05-07 17:29 | 38.92099 | 20.75436 | 27 ft | 14 kts | 120° |
| 2026-05-07 17:29 | 38.92120 | 20.75564 | 26 ft | 16 kts | 69° |
| 2026-05-07 17:29 | 38.92164 | 20.75709 | 27 ft | 19 kts | 69° |
| 2026-05-07 17:29 | 38.92214 | 20.75870 | 25 ft | 20 kts | 68° |
| 2026-05-07 17:30 | 38.92270 | 20.76046 | 25 ft | 22 kts | 68° |
| 2026-05-07 17:30 | 38.92330 | 20.76236 | 23 ft | 24 kts | 68° |
| 2026-05-07 17:30 | 38.92396 | 20.76443 | 24 ft | 26 kts | 68° |
| 2026-05-07 17:30 | 38.92462 | 20.76652 | 24 ft | 23 kts | 68° |
| 2026-05-07 17:31 | 38.92525 | 20.76850 | 25 ft | 25 kts | 68° |
| 2026-05-07 17:31 | 38.92588 | 20.77052 | 24 ft | 24 kts | 68° |
| 2026-05-07 17:31 | 38.92629 | 20.77173 | 23 ft | 12 kts | 39° |
| 2026-05-07 17:31 | 38.92718 | 20.77140 | 23 ft | 14 kts | 341° |
| 2026-05-07 17:32 | 38.92787 | 20.77220 | 22 ft | 16 kts | 72° |
| 2026-05-07 17:32 | 38.92822 | 20.77334 | 23 ft | 9 kts | 53° |
| 2026-05-07 17:32 | 38.92886 | 20.77336 | 23 ft | 8 kts | 338° |
| 2026-05-07 17:32 | 38.92924 | 20.77314 | 23 ft | 2 kts | 322° |
| 2026-05-07 17:33 | 38.92939 | 20.77294 | 24 ft | 5 kts | 314° |
| 2026-05-07 17:33 | 38.92976 | 20.77265 | 24 ft | 8 kts | 335° |
| 2026-05-07 17:33 | 38.93012 | 20.77247 | 24 ft | 7 kts | 339° |
| 2026-05-07 17:33 | 38.93023 | 20.77242 | 24 ft | 0 kts | 340° |